Latest Weather Observations for Hobart

IDT60801

Issued at 3:05 pm EST Thursday 28 August 2014 (issued every 30 minutes, with the page automatically refreshed every 10 minutes)

About weather observations | Map of weather stations | Latest weather observations for TAS | Other Formats
Station Details ID: 094029 Name: HOBART (ELLERSLIE ROAD) Lat: -42.89 Lon: 147.33 Height: 50.5 m
Data from the previous 72 hours. | See also: Recent months at Hobart
Date/Time
EST
Temp
°C
App
Temp
°C
Dew
Point
Rel
Hum
%
Delta-T
°C
Wind Press
QNH
hPa
Press
MSL
hPa
Rain
since 9 am
mm
Dir
 
Spd
km/h
Gust
km/h
Spd
kts
Gust
kts
28/03:00pm 15.3 11.4 5.4 51 4.7 ESE 15 17 8 9 1026.8 1026.9 0.0
28/02:30pm 14.6 11.7 6.3 57 4.0 ESE 11 15 6 8 1026.8 1026.9 0.0
28/02:00pm 16.1 13.2 4.8 47 5.3 NE 9 13 5 7 1026.8 1026.9 0.0
28/01:30pm 15.5 12.8 5.4 51 4.8 NE 9 13 5 7 1027.0 1027.1 0.0
28/01:00pm 16.4 13.9 6.6 52 4.8 NNW 9 15 5 8 1027.4 1027.5 0.0
28/12:30pm 15.5 13.3 7.9 60 3.8 NNW 9 13 5 7 1027.8 1027.9 0.0
28/12:00pm 13.9 11.7 7.8 66 3.0 N 9 13 5 7 1028.2 1028.3 0.0
28/11:30am 13.1 10.1 7.8 70 2.6 NNW 13 19 7 10 1028.6 1028.8 0.0
28/11:00am 12.6 9.6 7.7 72 2.4 NNW 13 17 7 9 1028.9 1029.1 0.0
28/10:30am 11.4 8.7 7.4 76 1.9 N 11 17 6 9 1029.1 1029.3 0.0
28/10:00am 11.7 9.5 7.8 77 1.9 NNW 9 13 5 7 1029.4 1029.6 0.0
28/09:30am 10.1 7.0 7.4 83 1.3 N 13 19 7 10 1029.3 1029.5 0.0
28/09:00am 10.9 7.9 7.6 80 1.6 N 13 20 7 11 1029.3 1029.5 0.2
28/08:30am 9.6 7.3 7.5 87 1.0 N 9 13 5 7 1029.3 - 0.2
28/08:00am 9.3 7.4 7.4 88 0.9 W 7 9 4 5 1029.1 1029.3 0.2
28/07:30am 8.2 6.4 7.1 93 0.5 WNW 6 9 3 5 1029.0 - 0.2
28/07:00am 8.2 6.2 6.9 91 0.6 W 7 13 4 7 1028.9 1029.1 0.2
28/06:30am 8.1 5.7 7.2 94 0.4 NNW 9 13 5 7 1028.6 - 0.0
28/06:00am 8.3 7.7 7.4 94 0.4 CALM 0 0 0 0 1028.6 1028.8 0.0
28/05:30am 8.6 8.0 7.5 93 0.5 CALM 0 0 0 0 1028.5 - 0.0
28/05:00am 8.9 7.0 7.6 91 0.6 NNW 7 9 4 5 1028.4 1028.6 0.0
28/04:30am 9.4 7.7 8.4 93 0.5 N 7 9 4 5 1028.4 - 0.0
28/04:00am 9.8 8.7 8.4 91 0.7 NW 4 9 2 5 1028.4 1028.6 0.0
28/03:30am 9.9 8.4 8.5 91 0.7 W 6 9 3 5 1028.3 - 0.0
28/03:00am 10.1 9.0 8.5 90 0.8 NNW 4 7 2 4 1028.3 1028.5 0.0
28/02:30am 10.4 8.8 8.6 89 0.9 W 7 11 4 6 1028.4 - 0.0
28/02:00am 10.9 10.3 7.6 80 1.6 CALM 0 2 0 1 1028.5 1028.7 0.0
28/01:30am 10.7 9.6 7.1 78 1.7 W 2 7 1 4 1028.7 - 0.0
28/01:00am 10.8 9.7 7.0 77 1.8 WSW 2 7 1 4 1029.1 1029.3 0.0
28/12:30am 11.1 9.3 7.1 76 1.9 W 6 7 3 4 1029.0 - 0.0
28/12:00am 11.2 9.2 7.2 76 1.9 W 7 9 4 5 1029.1 1029.3 0.0
 
Date/Time
EST
Temp
°C
App
Temp
°C
Dew
Point
Rel
Hum
%
Delta-T
°C
Wind Press
QNH
hPa
Press
MSL
hPa
Rain
since 9 am
mm
Dir
 
Spd
km/h
Gust
km/h
Spd
kts
Gust
kts
27/11:30pm 11.4 9.6 7.2 75 2.0 W 6 11 3 6 1029.0 - 0.0
27/11:00pm 12.0 10.6 7.4 73 2.2 S 4 7 2 4 1029.1 1029.3 0.0
27/10:30pm 12.4 10.4 7.0 69 2.6 SSE 7 9 4 5 1029.0 - 0.0
27/10:00pm 12.7 10.3 7.1 69 2.7 S 9 17 5 9 1029.0 1029.2 0.0
27/09:30pm 12.8 10.5 7.4 69 2.6 S 9 17 5 9 1028.9 - 0.0
27/09:00pm 12.9 11.1 7.8 71 2.5 ESE 7 13 4 7 1028.7 1028.9 0.0
27/08:30pm 12.9 10.7 7.8 71 2.5 SSW 9 17 5 9 1028.4 - 0.0
27/08:00pm 13.0 10.7 7.4 69 2.7 S 9 15 5 8 1028.1 1028.2 0.0
27/07:30pm 13.4 10.3 7.2 66 3.0 SSW 13 20 7 11 1027.8 - 0.0
27/07:00pm 13.1 10.5 7.6 69 2.7 SSW 11 15 6 8 1027.6 1027.7 0.0
27/06:30pm 13.5 11.2 7.3 66 3.0 SSW 9 13 5 7 1027.4 - 0.0
27/06:00pm 14.3 10.7 6.6 60 3.7 SW 15 22 8 12 1026.9 1027.0 0.0
27/05:30pm 15.3 13.5 8.1 62 3.6 SE 7 11 4 6 1026.6 - 0.0
27/05:00pm 16.2 13.6 7.6 56 4.3 SE 11 15 6 8 1026.3 1026.4 0.0
27/04:30pm 16.6 12.5 6.3 50 5.0 ESE 17 20 9 11 1026.2 - 0.0
27/04:00pm 18.6 15.3 4.6 39 6.7 N 11 17 6 9 1026.0 1026.1 0.0
27/03:30pm 18.7 15.0 4.4 39 6.8 NE 13 17 7 9 1025.9 - 0.0
27/03:00pm 18.7 15.0 4.7 39 6.7 NE 13 17 7 9 1025.9 1026.0 0.0
27/02:30pm 19.4 15.9 5.5 40 6.8 NNE 13 17 7 9 1026.0 - 0.0
27/02:00pm 19.4 16.4 5.8 41 6.7 N 11 17 6 9 1026.0 1026.1 0.0
27/01:30pm 18.5 13.5 4.4 39 6.7 NNW 20 28 11 15 1026.1 - 0.0
27/01:00pm 18.2 13.4 5.4 43 6.2 N 20 30 11 16 1026.4 1026.5 0.0
27/12:30pm 17.2 11.8 4.7 43 5.9 N 22 32 12 17 1026.6 - 0.0
27/12:00pm 17.2 11.9 5.0 44 5.8 N 22 33 12 18 1027.0 1027.1 0.0
27/11:30am 16.3 10.6 4.8 46 5.4 N 24 33 13 18 1027.2 - 0.0
27/11:00am 15.5 9.9 5.4 51 4.8 N 24 33 13 18 1027.7 1027.8 0.0
27/10:30am 14.7 9.9 5.6 54 4.3 NNW 20 28 11 15 1027.7 - 0.0
27/10:00am 13.0 7.5 6.0 62 3.3 NNW 24 32 13 17 1027.9 1028.0 0.0
27/09:30am 12.0 7.8 5.8 66 2.9 NNW 17 28 9 15 1028.3 - 0.0
27/09:00am 11.1 6.9 5.7 69 2.5 NW 17 24 9 13 1028.2 1028.3 0.2
27/08:30am 9.8 4.5 4.9 71 2.2 NW 22 32 12 17 1028.1 - 0.2
27/08:00am 8.9 3.7 5.3 78 1.6 NNW 22 33 12 18 1028.1 1028.2 0.2
27/07:30am 8.2 3.5 5.0 80 1.4 NW 19 26 10 14 1028.1 - 0.2
27/07:00am 7.2 2.5 5.2 87 0.9 NW 19 30 10 16 1027.5 1027.6 0.2
27/06:30am 7.5 2.8 5.2 85 1.0 NW 19 26 10 14 1027.3 - 0.2
27/06:00am 7.8 3.1 5.3 84 1.1 N 19 26 10 14 1027.3 1027.4 0.2
27/05:30am 8.6 4.0 5.5 81 1.4 NNW 19 28 10 15 1027.2 - 0.2
27/05:00am 8.4 2.1 5.7 83 1.2 NNW 28 35 15 19 1027.1 1027.2 0.2
27/04:30am 8.7 3.2 5.8 82 1.3 NNW 24 30 13 16 1027.1 - 0.2
27/04:00am 9.3 5.5 6.0 80 1.5 N 15 20 8 11 1027.3 1027.4 0.2
27/03:30am 9.2 4.7 6.1 81 1.4 N 19 30 10 16 1027.3 - 0.2
27/03:00am 9.2 5.1 6.1 81 1.4 N 17 24 9 13 1027.4 1027.5 0.2
27/02:30am 8.8 4.3 6.2 84 1.2 N 19 24 10 13 1027.7 - 0.2
27/02:00am 9.4 5.0 6.4 81 1.4 NNW 19 26 10 14 1027.8 1027.9 0.2
27/01:30am 9.3 5.3 6.7 84 1.2 NNW 17 22 9 12 1028.0 - 0.2
27/01:00am 9.3 5.4 6.9 85 1.1 NNW 17 22 9 12 1027.9 1028.0 0.2
27/12:30am 9.2 5.0 7.3 88 0.9 NNW 19 22 10 12 1028.1 - 0.2
27/12:00am 9.1 6.0 7.4 89 0.8 N 13 17 7 9 1028.4 1028.6 0.2
 
Date/Time
EST
Temp
°C
App
Temp
°C
Dew
Point
Rel
Hum
%
Delta-T
°C
Wind Press
QNH
hPa
Press
MSL
hPa
Rain
since 9 am
mm
Dir
 
Spd
km/h
Gust
km/h
Spd
kts
Gust
kts
26/11:30pm 8.7 6.4 7.4 91 0.6 N 9 11 5 6 1028.4 - 0.2
26/11:00pm 9.0 7.3 7.5 90 0.7 N 6 9 3 5 1028.4 1028.6 0.2
26/10:30pm 9.2 7.5 7.7 90 0.7 N 6 9 3 5 1028.4 - 0.2
26/10:00pm 9.8 9.3 7.9 88 0.9 CALM 0 0 0 0 1028.4 1028.6 0.2
26/09:30pm 10.0 9.6 8.1 88 0.9 CALM 0 4 0 2 1028.5 - 0.2
26/09:00pm 10.2 8.4 8.1 87 1.0 NW 7 11 4 6 1028.3 1028.5 0.2
26/08:30pm 10.1 8.7 8.7 91 0.7 W 6 9 3 5 1028.6 - 0.2
26/08:00pm 10.9 9.5 9.5 91 0.7 NW 7 9 4 5 1028.5 1028.7 0.2
26/07:30pm 11.0 9.5 9.2 89 0.9 N 7 9 4 5 1028.4 - 0.2
26/07:00pm 11.5 10.5 10.3 92 0.6 NE 6 13 3 7 1028.3 1028.5 0.2
26/06:30pm 12.3 9.8 8.4 77 1.9 WSW 11 13 6 7 1028.1 - 0.2
26/06:00pm 12.9 11.2 8.5 74 2.2 SW 7 13 4 7 1027.8 1027.9 0.2
26/05:30pm 13.4 10.7 8.8 74 2.3 WSW 13 17 7 9 1027.9 - 0.2
26/05:00pm 14.1 12.6 9.2 72 2.5 S 7 9 4 5 1027.9 1028.0 0.2
26/04:30pm 14.6 12.3 8.9 68 2.9 SE 11 15 6 8 1028.0 - 0.0
26/04:00pm 14.8 12.4 8.6 66 3.1 SE 11 15 6 8 1028.1 1028.2 0.0
26/03:30pm 14.6 11.9 8.9 68 2.9 ESE 13 17 7 9 1028.1 - 0.0
26/03:00pm 15.1 13.2 9.0 67 3.1 ESE 9 15 5 8 1028.2 1028.3 0.0
26/02:30pm 14.2 11.7 8.2 67 3.0 E 11 13 6 7 1028.5 - 0.0
26/02:00pm 14.6 12.8 7.9 64 3.3 E 7 11 4 6 1028.6 1028.8 0.0
26/01:30pm 14.0 12.3 8.2 68 2.9 E 7 9 4 5 1028.9 - 0.0
26/01:00pm 13.7 12.0 8.5 71 2.6 E 7 9 4 5 1029.2 1029.4 0.0
26/12:30pm 13.6 12.1 9.0 74 2.3 ENE 7 9 4 5 1029.6 - 0.0
26/12:00pm 12.3 10.7 8.7 79 1.8 E 7 9 4 5 1030.1 1030.3 0.0
26/11:30am 12.2 10.1 8.1 76 2.0 E 9 15 5 8 1030.4 - 0.0
26/11:00am 14.9 12.3 7.6 61 3.6 N 11 15 6 8 1030.8 1030.9 0.0
26/10:30am 13.5 10.5 7.8 68 2.8 N 13 17 7 9 1031.2 - 0.0
26/10:00am 13.9 12.2 8.5 70 2.7 NNW 7 9 4 5 1031.3 1031.4 0.0
26/09:30am 11.9 8.9 7.8 76 2.0 NNW 13 17 7 9 1031.6 - 0.0
26/09:00am 10.4 7.4 7.5 82 1.4 NNW 13 17 7 9 1031.5 1031.6 0.0
26/08:30am 9.0 5.1 7.1 88 0.9 NNW 17 24 9 13 1031.4 - 0.0
26/08:00am 8.0 4.0 6.7 91 0.6 NNW 17 22 9 12 1031.3 1031.4 0.0
26/07:30am 7.4 3.4 6.5 94 0.4 NW 17 30 9 16 1031.1 - 0.0
26/07:00am 6.9 2.5 6.5 97 0.2 NW 19 33 10 18 1031.0 1031.1 0.0
26/06:30am 7.4 2.0 6.5 94 0.4 NW 24 33 13 18 1030.5 - 0.0
26/06:00am 6.8 1.3 6.1 95 0.3 NW 24 32 13 17 1030.2 1030.4 0.0
26/05:30am 6.9 2.3 6.5 97 0.2 NW 20 28 11 15 1030.2 - 0.0
26/05:00am 7.4 4.5 6.5 94 0.4 NNW 11 19 6 10 1030.1 1030.3 0.0
26/04:30am 7.3 4.8 6.4 94 0.4 NNW 9 17 5 9 1030.1 - 0.0
26/04:00am 7.4 4.2 6.7 95 0.3 NNW 13 19 7 10 1030.2 1030.4 0.0
26/03:30am 7.6 4.7 6.7 94 0.4 NNW 11 17 6 9 1030.3 - 0.0
26/03:00am 7.2 5.1 6.5 95 0.3 NNW 7 11 4 6 1030.4 1030.6 0.0
26/02:30am 7.6 5.7 6.9 95 0.3 NNW 6 7 3 4 1030.4 - 0.0
26/02:00am 7.9 5.9 7.0 94 0.4 WSW 7 9 4 5 1030.7 1030.8 0.0
26/01:30am 8.3 7.8 7.7 96 0.3 CALM 0 0 0 0 1030.9 - 0.0
26/01:00am 7.8 5.4 6.9 94 0.4 NW 9 11 5 6 1031.0 1031.1 0.0
26/12:30am 8.3 7.7 7.2 93 0.5 CALM 0 6 0 3 1030.9 - 0.0
26/12:00am 8.4 7.8 7.3 93 0.5 CALM 0 0 0 0 1031.1 1031.2 0.0
 
Date/Time
EST
Temp
°C
App
Temp
°C
Dew
Point
Rel
Hum
%
Delta-T
°C
Wind Press
QNH
hPa
Press
MSL
hPa
Rain
since 9 am
mm
Dir
 
Spd
km/h
Gust
km/h
Spd
kts
Gust
kts
25/11:30pm 8.8 6.9 7.7 93 0.5 W 7 9 4 5 1031.1 - 0.0
25/11:00pm 9.1 7.5 7.8 92 0.6 WSW 6 9 3 5 1031.1 1031.2 0.0
25/10:30pm 9.3 7.7 8.0 92 0.6 W 6 9 3 5 1031.1 - 0.0
25/10:00pm 9.5 7.3 8.0 90 0.7 WSW 9 11 5 6 1031.1 1031.2 0.0
25/09:30pm 9.7 8.9 8.0 89 0.8 WSW 2 6 1 3 1031.1 - 0.0
25/09:00pm 9.9 8.3 8.0 88 0.9 WSW 6 7 3 4 1031.0 1031.1 0.0
25/08:30pm 10.3 8.2 8.2 87 1.0 WSW 9 11 5 6 1030.9 - 0.0
25/08:00pm 10.6 8.9 8.3 86 1.1 SW 7 11 4 6 1030.8 1030.9 0.0
25/07:30pm 10.9 8.5 8.7 86 1.1 W 11 13 6 7 1030.5 - 0.0
25/07:00pm 11.1 11.0 9.3 89 0.9 CALM 0 0 0 0 1030.3 1030.5 0.0
25/06:30pm 11.7 11.2 9.5 86 1.1 NNE 2 7 1 4 1030.2 - 0.0
25/06:00pm 13.1 12.0 10.0 81 1.6 E 6 7 3 4 1030.1 1030.3 0.0
25/05:30pm 13.8 12.4 9.7 76 2.1 SE 7 11 4 6 1029.9 - 0.0
25/05:00pm 13.9 12.1 9.4 74 2.3 SSE 9 13 5 7 1029.7 1029.9 0.0
25/04:30pm 14.3 13.1 9.4 72 2.5 S 6 9 3 5 1029.5 - 0.0
25/04:00pm 14.3 11.9 8.7 69 2.8 SE 11 15 6 8 1029.5 1029.7 0.0
25/03:30pm 14.2 11.4 8.6 69 2.8 SE 13 17 7 9 1029.5 - 0.0

Other Formats:

Comma delimited format used in spreadsheet applications
http://www.bom.gov.au/fwo/IDT60801/IDT60801.94970.axf

JavaScript Object Notation format (JSON) in row-major order
http://www.bom.gov.au/fwo/IDT60801/IDT60801.94970.json